KSGR/SGR METAR and TAF weather

Enter ICAO airport designator
Station Type Date Time Source
KSGR METAR 2019/06/17 12:53 UTC NOAA

KSGR 171253Z 19007KT 10SM -RA CLR 21/20 A2985 RMK AO2 SLP108 P0004 T02060200


Station Type Date Time Source
KSGR Decoded METAR 2019/06/17 12:53 UTC NOAA

SUGARLAND REGIONAL AIRPORT, TX, United States (KSGR) 29-37N 095-39W
Jun 17, 2019 - 08:53 AM EDT / 2019.06.17 1253 UTC
Wind: from the S (190 degrees) at 8 MPH (7 KT):0
Visibility: 10 mile(s):0
Sky conditions: clear
Weather: light rain
Precipitation last hour: 0.04 inches
Temperature: 69.1 F (20.6 C)
Dew Point: 68.0 F (20.0 C)
Relative Humidity: 96%
Pressure (altimeter): 29.85 in. Hg (1010 hPa)
ob: KSGR 171253Z 19007KT 10SM -RA CLR 21/20 A2985 RMK AO2 SLP108 P0004 T02060200
cycle: 13

Station Type Date Time Source
KSGR TAF 2019/06/17 12:24 UTC NOAA

TAF KSGR 171122Z 1712/1812 VRB10KT 6SM SHRA VCTS SCT020CB BKN060
FM171400 17006KT P6SM VCSH SCT025 OVC100
FM180000 16006KT P6SM FEW025 SCT200
FM180900 00000KT P6SM FEW015 SCT100

Example: see airport list